sensor_id;sensor_type;location;lat;lon;timestamp;P1;durP1;ratioP1;P2;durP2;ratioP2
32501;SDS011;18952;52.516;13.460;2024-01-15T00:01:43;19.02;;;17.02;;
32501;SDS011;18952;52.516;13.460;2024-01-15T00:04:14;19.48;;;17.25;;
32501;SDS011;18952;52.516;13.460;2024-01-15T00:06:42;19.58;;;17.52;;
32501;SDS011;18952;52.516;13.460;2024-01-15T00:09:13;22.33;;;17.80;;
32501;SDS011;18952;52.516;13.460;2024-01-15T00:11:40;20.83;;;18.73;;
32501;SDS011;18952;52.516;13.460;2024-01-15T00:14:09;21.92;;;19.08;;
32501;SDS011;18952;52.516;13.460;2024-01-15T00:16:37;20.70;;;18.60;;
32501;SDS011;18952;52.516;13.460;2024-01-15T00:19:03;20.83;;;18.33;;
32501;SDS011;18952;52.516;13.460;2024-01-15T00:21:34;22.55;;;17.73;;
32501;SDS011;18952;52.516;13.460;2024-01-15T00:24:04;22.55;;;18.38;;
32501;SDS011;18952;52.516;13.460;2024-01-15T00:26:35;21.70;;;18.92;;
32501;SDS011;18952;52.516;13.460;2024-01-15T00:29:03;21.30;;;18.15;;
32501;SDS011;18952;52.516;13.460;2024-01-15T00:31:30;20.33;;;18.13;;
32501;SDS011;18952;52.516;13.460;2024-01-15T00:33:58;20.88;;;18.65;;
32501;SDS011;18952;52.516;13.460;2024-01-15T00:36:26;19.63;;;17.40;;
32501;SDS011;18952;52.516;13.460;2024-01-15T00:38:54;19.02;;;17.13;;
32501;SDS011;18952;52.516;13.460;2024-01-15T00:41:24;19.85;;;17.35;;
32501;SDS011;18952;52.516;13.460;2024-01-15T00:43:53;21.08;;;17.55;;
32501;SDS011;18952;52.516;13.460;2024-01-15T00:46:21;19.05;;;16.85;;
32501;SDS011;18952;52.516;13.460;2024-01-15T00:48:48;19.02;;;16.58;;
32501;SDS011;18952;52.516;13.460;2024-01-15T00:51:15;19.08;;;16.48;;
32501;SDS011;18952;52.516;13.460;2024-01-15T00:53:43;21.25;;;17.88;;
32501;SDS011;18952;52.516;13.460;2024-01-15T00:56:11;18.92;;;16.65;;
32501;SDS011;18952;52.516;13.460;2024-01-15T00:58:39;19.48;;;16.60;;
32501;SDS011;18952;52.516;13.460;2024-01-15T01:01:09;18.47;;;16.50;;
32501;SDS011;18952;52.516;13.460;2024-01-15T01:03:37;20.77;;;17.17;;
32501;SDS011;18952;52.516;13.460;2024-01-15T01:06:04;19.33;;;16.88;;
32501;SDS011;18952;52.516;13.460;2024-01-15T01:08:32;18.77;;;16.88;;
32501;SDS011;18952;52.516;13.460;2024-01-15T01:11:00;22.00;;;17.98;;
32501;SDS011;18952;52.516;13.460;2024-01-15T01:13:30;21.07;;;18.33;;
32501;SDS011;18952;52.516;13.460;2024-01-15T01:15:59;21.10;;;18.30;;
32501;SDS011;18952;52.516;13.460;2024-01-15T01:18:27;22.95;;;20.08;;
32501;SDS011;18952;52.516;13.460;2024-01-15T01:20:56;23.30;;;19.05;;
32501;SDS011;18952;52.516;13.460;2024-01-15T01:23:25;22.67;;;20.20;;
32501;SDS011;18952;52.516;13.460;2024-01-15T01:25:52;25.67;;;21.30;;
32501;SDS011;18952;52.516;13.460;2024-01-15T01:28:21;25.20;;;21.13;;
32501;SDS011;18952;52.516;13.460;2024-01-15T01:30:47;22.08;;;19.88;;
32501;SDS011;18952;52.516;13.460;2024-01-15T01:33:16;22.85;;;19.10;;
32501;SDS011;18952;52.516;13.460;2024-01-15T01:35:43;21.87;;;19.47;;
32501;SDS011;18952;52.516;13.460;2024-01-15T01:38:12;25.20;;;20.73;;
32501;SDS011;18952;52.516;13.460;2024-01-15T01:40:39;22.80;;;20.10;;
32501;SDS011;18952;52.516;13.460;2024-01-15T01:43:09;23.00;;;20.10;;
32501;SDS011;18952;52.516;13.460;2024-01-15T01:45:37;24.38;;;21.13;;
32501;SDS011;18952;52.516;13.460;2024-01-15T01:48:05;25.90;;;21.13;;
32501;SDS011;18952;52.516;13.460;2024-01-15T01:50:33;28.88;;;23.23;;
32501;SDS011;18952;52.516;13.460;2024-01-15T01:53:01;29.23;;;24.02;;
32501;SDS011;18952;52.516;13.460;2024-01-15T01:55:28;26.33;;;21.05;;
32501;SDS011;18952;52.516;13.460;2024-01-15T01:58:01;29.93;;;24.37;;
32501;SDS011;18952;52.516;13.460;2024-01-15T02:00:30;26.50;;;23.55;;
32501;SDS011;18952;52.516;13.460;2024-01-15T02:03:04;25.95;;;22.13;;
32501;SDS011;18952;52.516;13.460;2024-01-15T02:05:36;26.08;;;22.88;;
32501;SDS011;18952;52.516;13.460;2024-01-15T02:08:09;25.67;;;22.60;;
32501;SDS011;18952;52.516;13.460;2024-01-15T02:10:37;24.60;;;21.70;;
32501;SDS011;18952;52.516;13.460;2024-01-15T02:13:04;28.42;;;23.38;;
32501;SDS011;18952;52.516;13.460;2024-01-15T02:15:31;25.83;;;22.38;;
32501;SDS011;18952;52.516;13.460;2024-01-15T02:18:03;27.52;;;22.88;;
32501;SDS011;18952;52.516;13.460;2024-01-15T02:20:32;26.10;;;21.35;;
32501;SDS011;18952;52.516;13.460;2024-01-15T02:23:15;26.17;;;21.17;;
32501;SDS011;18952;52.516;13.460;2024-01-15T02:25:44;23.70;;;20.03;;
32501;SDS011;18952;52.516;13.460;2024-01-15T02:28:14;23.38;;;18.50;;
32501;SDS011;18952;52.516;13.460;2024-01-15T02:30:44;22.98;;;17.13;;
32501;SDS011;18952;52.516;13.460;2024-01-15T02:33:15;22.23;;;17.15;;
32501;SDS011;18952;52.516;13.460;2024-01-15T02:35:42;19.00;;;15.95;;
32501;SDS011;18952;52.516;13.460;2024-01-15T02:38:09;21.52;;;15.50;;
32501;SDS011;18952;52.516;13.460;2024-01-15T02:40:38;17.75;;;14.50;;
32501;SDS011;18952;52.516;13.460;2024-01-15T02:43:05;17.38;;;13.35;;
32501;SDS011;18952;52.516;13.460;2024-01-15T02:45:32;17.55;;;13.95;;
32501;SDS011;18952;52.516;13.460;2024-01-15T02:48:01;19.15;;;14.02;;
32501;SDS011;18952;52.516;13.460;2024-01-15T02:50:28;18.85;;;14.05;;
32501;SDS011;18952;52.516;13.460;2024-01-15T02:52:55;19.27;;;14.38;;
32501;SDS011;18952;52.516;13.460;2024-01-15T02:55:24;16.83;;;13.50;;
32501;SDS011;18952;52.516;13.460;2024-01-15T02:57:51;18.40;;;13.13;;
32501;SDS011;18952;52.516;13.460;2024-01-15T03:00:19;18.57;;;13.63;;
32501;SDS011;18952;52.516;13.460;2024-01-15T03:02:47;13.95;;;12.30;;
32501;SDS011;18952;52.516;13.460;2024-01-15T03:05:18;16.58;;;13.30;;
32501;SDS011;18952;52.516;13.460;2024-01-15T03:07:45;18.77;;;13.65;;
32501;SDS011;18952;52.516;13.460;2024-01-15T03:10:13;17.33;;;13.57;;
32501;SDS011;18952;52.516;13.460;2024-01-15T03:12:40;16.75;;;13.90;;
32501;SDS011;18952;52.516;13.460;2024-01-15T03:15:10;16.10;;;13.13;;
32501;SDS011;18952;52.516;13.460;2024-01-15T03:17:38;15.93;;;12.80;;
32501;SDS011;18952;52.516;13.460;2024-01-15T03:20:08;17.02;;;12.35;;
32501;SDS011;18952;52.516;13.460;2024-01-15T03:22:37;18.25;;;11.55;;
32501;SDS011;18952;52.516;13.460;2024-01-15T03:25:05;15.80;;;11.23;;
32501;SDS011;18952;52.516;13.460;2024-01-15T03:27:34;15.50;;;10.73;;
32501;SDS011;18952;52.516;13.460;2024-01-15T03:30:01;16.05;;;12.27;;
32501;SDS011;18952;52.516;13.460;2024-01-15T03:32:31;16.90;;;11.82;;
32501;SDS011;18952;52.516;13.460;2024-01-15T03:34:59;14.98;;;11.68;;
32501;SDS011;18952;52.516;13.460;2024-01-15T03:37:28;14.63;;;11.38;;
32501;SDS011;18952;52.516;13.460;2024-01-15T03:39:55;16.23;;;11.07;;
32501;SDS011;18952;52.516;13.460;2024-01-15T03:42:24;16.70;;;10.88;;
32501;SDS011;18952;52.516;13.460;2024-01-15T03:44:51;16.27;;;11.85;;
32501;SDS011;18952;52.516;13.460;2024-01-15T03:47:19;15.37;;;11.17;;
32501;SDS011;18952;52.516;13.460;2024-01-15T03:49:46;16.77;;;10.80;;
32501;SDS011;18952;52.516;13.460;2024-01-15T03:52:14;14.95;;;10.45;;
32501;SDS011;18952;52.516;13.460;2024-01-15T03:54:42;14.18;;;10.02;;
32501;SDS011;18952;52.516;13.460;2024-01-15T03:57:09;21.42;;;10.40;;
32501;SDS011;18952;52.516;13.460;2024-01-15T03:59:38;17.10;;;10.32;;
32501;SDS011;18952;52.516;13.460;2024-01-15T04:02:11;16.35;;;10.27;;
32501;SDS011;18952;52.516;13.460;2024-01-15T04:04:40;19.15;;;10.45;;
32501;SDS011;18952;52.516;13.460;2024-01-15T04:07:10;14.03;;;9.67;;
32501;SDS011;18952;52.516;13.460;2024-01-15T04:09:40;16.42;;;9.93;;
32501;SDS011;18952;52.516;13.460;2024-01-15T04:12:07;16.15;;;10.45;;
32501;SDS011;18952;52.516;13.460;2024-01-15T04:14:36;20.10;;;9.82;;
32501;SDS011;18952;52.516;13.460;2024-01-15T04:17:03;19.23;;;9.70;;
32501;SDS011;18952;52.516;13.460;2024-01-15T04:19:31;15.27;;;9.70;;
32501;SDS011;18952;52.516;13.460;2024-01-15T04:22:07;14.07;;;9.45;;
32501;SDS011;18952;52.516;13.460;2024-01-15T04:24:34;16.42;;;9.30;;
32501;SDS011;18952;52.516;13.460;2024-01-15T04:27:04;16.23;;;9.20;;
32501;SDS011;18952;52.516;13.460;2024-01-15T04:29:37;15.00;;;8.93;;
32501;SDS011;18952;52.516;13.460;2024-01-15T04:32:08;15.45;;;8.93;;
32501;SDS011;18952;52.516;13.460;2024-01-15T04:34:35;14.50;;;8.35;;
32501;SDS011;18952;52.516;13.460;2024-01-15T04:37:04;12.70;;;8.07;;
32501;SDS011;18952;52.516;13.460;2024-01-15T04:39:33;16.02;;;7.88;;
32501;SDS011;18952;52.516;13.460;2024-01-15T04:42:01;16.08;;;8.23;;
32501;SDS011;18952;52.516;13.460;2024-01-15T04:44:28;14.38;;;7.25;;
32501;SDS011;18952;52.516;13.460;2024-01-15T04:46:56;14.68;;;7.78;;
32501;SDS011;18952;52.516;13.460;2024-01-15T04:49:23;13.40;;;6.77;;
32501;SDS011;18952;52.516;13.460;2024-01-15T04:51:53;12.20;;;7.25;;
32501;SDS011;18952;52.516;13.460;2024-01-15T04:54:20;12.88;;;6.57;;
32501;SDS011;18952;52.516;13.460;2024-01-15T04:56:47;13.82;;;6.72;;
32501;SDS011;18952;52.516;13.460;2024-01-15T04:59:15;13.32;;;6.45;;
32501;SDS011;18952;52.516;13.460;2024-01-15T05:01:42;17.40;;;7.00;;
32501;SDS011;18952;52.516;13.460;2024-01-15T05:04:10;13.57;;;5.85;;
32501;SDS011;18952;52.516;13.460;2024-01-15T05:06:38;13.93;;;6.40;;
32501;SDS011;18952;52.516;13.460;2024-01-15T05:09:05;15.77;;;5.85;;
32501;SDS011;18952;52.516;13.460;2024-01-15T05:11:33;10.90;;;5.55;;
32501;SDS011;18952;52.516;13.460;2024-01-15T05:14:01;12.80;;;5.55;;
32501;SDS011;18952;52.516;13.460;2024-01-15T05:16:29;13.95;;;5.32;;
32501;SDS011;18952;52.516;13.460;2024-01-15T05:18:56;12.38;;;5.32;;
32501;SDS011;18952;52.516;13.460;2024-01-15T05:21:25;13.43;;;5.38;;
32501;SDS011;18952;52.516;13.460;2024-01-15T05:23:52;14.50;;;4.90;;
32501;SDS011;18952;52.516;13.460;2024-01-15T05:26:20;10.15;;;4.95;;
32501;SDS011;18952;52.516;13.460;2024-01-15T05:28:47;12.45;;;5.05;;
32501;SDS011;18952;52.516;13.460;2024-01-15T05:31:16;11.63;;;5.03;;
32501;SDS011;18952;52.516;13.460;2024-01-15T05:33:47;18.25;;;5.38;;
32501;SDS011;18952;52.516;13.460;2024-01-15T05:36:14;11.32;;;4.65;;
32501;SDS011;18952;52.516;13.460;2024-01-15T05:38:42;12.87;;;4.83;;
32501;SDS011;18952;52.516;13.460;2024-01-15T05:41:09;13.30;;;4.78;;
32501;SDS011;18952;52.516;13.460;2024-01-15T05:43:36;11.23;;;4.80;;
32501;SDS011;18952;52.516;13.460;2024-01-15T05:46:03;13.73;;;4.75;;
32501;SDS011;18952;52.516;13.460;2024-01-15T05:48:30;13.50;;;4.68;;
32501;SDS011;18952;52.516;13.460;2024-01-15T05:50:57;11.32;;;4.18;;
32501;SDS011;18952;52.516;13.460;2024-01-15T05:53:25;11.85;;;4.70;;
32501;SDS011;18952;52.516;13.460;2024-01-15T05:55:53;14.20;;;4.20;;
32501;SDS011;18952;52.516;13.460;2024-01-15T05:58:20;10.80;;;4.38;;
32501;SDS011;18952;52.516;13.460;2024-01-15T06:00:47;12.48;;;4.18;;
32501;SDS011;18952;52.516;13.460;2024-01-15T06:03:15;11.95;;;4.25;;
32501;SDS011;18952;52.516;13.460;2024-01-15T06:05:42;15.55;;;4.35;;
32501;SDS011;18952;52.516;13.460;2024-01-15T06:08:11;11.75;;;4.40;;
32501;SDS011;18952;52.516;13.460;2024-01-15T06:10:39;17.67;;;4.75;;
32501;SDS011;18952;52.516;13.460;2024-01-15T06:13:07;15.02;;;4.60;;
32501;SDS011;18952;52.516;13.460;2024-01-15T06:15:35;12.20;;;3.92;;
32501;SDS011;18952;52.516;13.460;2024-01-15T06:18:04;12.60;;;4.10;;
32501;SDS011;18952;52.516;13.460;2024-01-15T06:20:31;10.70;;;3.80;;
32501;SDS011;18952;52.516;13.460;2024-01-15T06:23:00;13.18;;;3.92;;
32501;SDS011;18952;52.516;13.460;2024-01-15T06:25:27;12.27;;;4.20;;
32501;SDS011;18952;52.516;13.460;2024-01-15T06:27:54;13.30;;;3.90;;
32501;SDS011;18952;52.516;13.460;2024-01-15T06:30:21;10.93;;;3.80;;
32501;SDS011;18952;52.516;13.460;2024-01-15T06:32:49;17.13;;;4.45;;
32501;SDS011;18952;52.516;13.460;2024-01-15T06:35:17;10.20;;;3.95;;
32501;SDS011;18952;52.516;13.460;2024-01-15T06:37:50;11.55;;;3.63;;
32501;SDS011;18952;52.516;13.460;2024-01-15T06:40:16;10.35;;;3.60;;
32501;SDS011;18952;52.516;13.460;2024-01-15T06:42:44;13.13;;;3.90;;
32501;SDS011;18952;52.516;13.460;2024-01-15T06:45:12;13.68;;;3.92;;
32501;SDS011;18952;52.516;13.460;2024-01-15T06:47:40;13.43;;;3.80;;
32501;SDS011;18952;52.516;13.460;2024-01-15T06:50:08;14.57;;;4.18;;
32501;SDS011;18952;52.516;13.460;2024-01-15T06:52:35;12.50;;;3.67;;
32501;SDS011;18952;52.516;13.460;2024-01-15T06:55:05;16.27;;;3.55;;
32501;SDS011;18952;52.516;13.460;2024-01-15T06:57:36;14.65;;;3.90;;
32501;SDS011;18952;52.516;13.460;2024-01-15T07:00:08;14.23;;;3.50;;
32501;SDS011;18952;52.516;13.460;2024-01-15T07:02:35;13.38;;;3.55;;
32501;SDS011;18952;52.516;13.460;2024-01-15T07:05:03;13.35;;;3.42;;
32501;SDS011;18952;52.516;13.460;2024-01-15T07:07:31;14.82;;;3.60;;
32501;SDS011;18952;52.516;13.460;2024-01-15T07:09:59;11.48;;;3.20;;
32501;SDS011;18952;52.516;13.460;2024-01-15T07:12:27;15.00;;;3.60;;
32501;SDS011;18952;52.516;13.460;2024-01-15T07:14:54;11.27;;;3.42;;
32501;SDS011;18952;52.516;13.460;2024-01-15T07:17:21;11.35;;;3.42;;
32501;SDS011;18952;52.516;13.460;2024-01-15T07:19:49;16.08;;;3.70;;
32501;SDS011;18952;52.516;13.460;2024-01-15T07:22:17;13.48;;;3.50;;
32501;SDS011;18952;52.516;13.460;2024-01-15T07:24:45;18.00;;;3.78;;
32501;SDS011;18952;52.516;13.460;2024-01-15T07:27:13;20.00;;;3.50;;
32501;SDS011;18952;52.516;13.460;2024-01-15T07:29:41;13.20;;;3.20;;
32501;SDS011;18952;52.516;13.460;2024-01-15T07:32:10;16.05;;;4.00;;
32501;SDS011;18952;52.516;13.460;2024-01-15T07:34:40;13.15;;;3.30;;
32501;SDS011;18952;52.516;13.460;2024-01-15T07:37:11;18.25;;;3.80;;
32501;SDS011;18952;52.516;13.460;2024-01-15T07:39:39;18.17;;;3.75;;
32501;SDS011;18952;52.516;13.460;2024-01-15T07:42:11;15.05;;;3.63;;
32501;SDS011;18952;52.516;13.460;2024-01-15T07:44:38;14.60;;;3.35;;
32501;SDS011;18952;52.516;13.460;2024-01-15T07:47:05;14.88;;;3.55;;
32501;SDS011;18952;52.516;13.460;2024-01-15T07:49:33;19.88;;;4.07;;
32501;SDS011;18952;52.516;13.460;2024-01-15T07:52:04;11.63;;;3.33;;
32501;SDS011;18952;52.516;13.460;2024-01-15T07:54:31;14.77;;;3.92;;
32501;SDS011;18952;52.516;13.460;2024-01-15T07:57:02;12.73;;;3.28;;
32501;SDS011;18952;52.516;13.460;2024-01-15T07:59:29;19.58;;;3.97;;
32501;SDS011;18952;52.516;13.460;2024-01-15T08:01:58;13.45;;;3.50;;
32501;SDS011;18952;52.516;13.460;2024-01-15T08:04:29;17.77;;;4.10;;
32501;SDS011;18952;52.516;13.460;2024-01-15T08:06:56;15.88;;;4.00;;
32501;SDS011;18952;52.516;13.460;2024-01-15T08:09:24;17.67;;;3.95;;
32501;SDS011;18952;52.516;13.460;2024-01-15T08:11:51;19.70;;;4.10;;
32501;SDS011;18952;52.516;13.460;2024-01-15T08:14:20;16.33;;;4.10;;
32501;SDS011;18952;52.516;13.460;2024-01-15T08:16:47;15.60;;;3.22;;
32501;SDS011;18952;52.516;13.460;2024-01-15T08:19:16;18.70;;;4.05;;
32501;SDS011;18952;52.516;13.460;2024-01-15T08:21:44;11.73;;;3.73;;
32501;SDS011;18952;52.516;13.460;2024-01-15T08:24:12;14.40;;;3.80;;
32501;SDS011;18952;52.516;13.460;2024-01-15T08:26:40;18.10;;;4.47;;
32501;SDS011;18952;52.516;13.460;2024-01-15T08:29:08;13.32;;;3.50;;
32501;SDS011;18952;52.516;13.460;2024-01-15T08:31:35;13.13;;;3.30;;
32501;SDS011;18952;52.516;13.460;2024-01-15T08:34:04;13.52;;;3.28;;
32501;SDS011;18952;52.516;13.460;2024-01-15T08:36:32;14.38;;;3.42;;
32501;SDS011;18952;52.516;13.460;2024-01-15T08:39:00;16.95;;;3.60;;
32501;SDS011;18952;52.516;13.460;2024-01-15T08:41:33;10.18;;;2.92;;
32501;SDS011;18952;52.516;13.460;2024-01-15T08:44:01;10.80;;;3.45;;
32501;SDS011;18952;52.516;13.460;2024-01-15T08:46:28;11.10;;;3.25;;
32501;SDS011;18952;52.516;13.460;2024-01-15T08:48:56;14.30;;;3.10;;
32501;SDS011;18952;52.516;13.460;2024-01-15T08:51:26;16.13;;;3.23;;
32501;SDS011;18952;52.516;13.460;2024-01-15T08:53:53;17.38;;;3.67;;
32501;SDS011;18952;52.516;13.460;2024-01-15T08:56:20;14.43;;;3.27;;
32501;SDS011;18952;52.516;13.460;2024-01-15T08:58:48;13.65;;;3.20;;
32501;SDS011;18952;52.516;13.460;2024-01-15T09:01:15;13.55;;;3.15;;
32501;SDS011;18952;52.516;13.460;2024-01-15T09:03:43;10.63;;;3.15;;
32501;SDS011;18952;52.516;13.460;2024-01-15T09:06:15;10.83;;;3.27;;
32501;SDS011;18952;52.516;13.460;2024-01-15T09:08:44;11.85;;;3.15;;
32501;SDS011;18952;52.516;13.460;2024-01-15T09:11:14;9.75;;;3.13;;
32501;SDS011;18952;52.516;13.460;2024-01-15T09:13:43;17.17;;;3.40;;
32501;SDS011;18952;52.516;13.460;2024-01-15T09:16:13;11.10;;;3.33;;
32501;SDS011;18952;52.516;13.460;2024-01-15T09:18:41;12.23;;;3.30;;
32501;SDS011;18952;52.516;13.460;2024-01-15T09:21:09;12.45;;;3.22;;
32501;SDS011;18952;52.516;13.460;2024-01-15T09:23:37;13.15;;;3.80;;
32501;SDS011;18952;52.516;13.460;2024-01-15T09:26:07;18.88;;;3.58;;
32501;SDS011;18952;52.516;13.460;2024-01-15T09:28:34;12.65;;;3.40;;
32501;SDS011;18952;52.516;13.460;2024-01-15T09:31:01;11.68;;;3.15;;
32501;SDS011;18952;52.516;13.460;2024-01-15T09:33:32;15.52;;;3.35;;
32501;SDS011;18952;52.516;13.460;2024-01-15T09:36:03;13.63;;;3.35;;
32501;SDS011;18952;52.516;13.460;2024-01-15T09:38:34;13.57;;;3.45;;
32501;SDS011;18952;52.516;13.460;2024-01-15T09:41:01;11.70;;;3.13;;
32501;SDS011;18952;52.516;13.460;2024-01-15T09:43:29;15.37;;;3.57;;
32501;SDS011;18952;52.516;13.460;2024-01-15T09:45:58;9.07;;;3.00;;
32501;SDS011;18952;52.516;13.460;2024-01-15T09:48:26;12.98;;;3.35;;
32501;SDS011;18952;52.516;13.460;2024-01-15T09:50:54;13.85;;;3.33;;
32501;SDS011;18952;52.516;13.460;2024-01-15T09:53:25;10.32;;;3.00;;
32501;SDS011;18952;52.516;13.460;2024-01-15T09:55:53;9.90;;;2.70;;
32501;SDS011;18952;52.516;13.460;2024-01-15T09:58:20;13.80;;;3.08;;
32501;SDS011;18952;52.516;13.460;2024-01-15T10:00:47;10.50;;;2.97;;
32501;SDS011;18952;52.516;13.460;2024-01-15T10:03:16;10.23;;;3.05;;
32501;SDS011;18952;52.516;13.460;2024-01-15T10:05:43;11.23;;;2.80;;
32501;SDS011;18952;52.516;13.460;2024-01-15T10:08:11;10.52;;;2.95;;
32501;SDS011;18952;52.516;13.460;2024-01-15T10:10:39;11.32;;;3.00;;
32501;SDS011;18952;52.516;13.460;2024-01-15T10:13:06;10.00;;;3.00;;
32501;SDS011;18952;52.516;13.460;2024-01-15T10:15:35;11.27;;;2.60;;
32501;SDS011;18952;52.516;13.460;2024-01-15T10:18:02;10.13;;;2.70;;
32501;SDS011;18952;52.516;13.460;2024-01-15T10:20:31;9.15;;;2.50;;
32501;SDS011;18952;52.516;13.460;2024-01-15T10:23:00;9.77;;;2.40;;
32501;SDS011;18952;52.516;13.460;2024-01-15T10:25:29;10.30;;;2.40;;
32501;SDS011;18952;52.516;13.460;2024-01-15T10:28:00;7.13;;;2.35;;
32501;SDS011;18952;52.516;13.460;2024-01-15T10:30:31;8.02;;;2.15;;
32501;SDS011;18952;52.516;13.460;2024-01-15T10:33:02;8.57;;;2.40;;
32501;SDS011;18952;52.516;13.460;2024-01-15T10:35:32;8.70;;;2.47;;
32501;SDS011;18952;52.516;13.460;2024-01-15T10:38:01;6.65;;;2.28;;
32501;SDS011;18952;52.516;13.460;2024-01-15T10:40:29;7.47;;;2.00;;
32501;SDS011;18952;52.516;13.460;2024-01-15T10:42:58;5.47;;;2.03;;
32501;SDS011;18952;52.516;13.460;2024-01-15T10:45:25;10.27;;;2.60;;
32501;SDS011;18952;52.516;13.460;2024-01-15T10:47:54;6.18;;;2.25;;
32501;SDS011;18952;52.516;13.460;2024-01-15T10:50:21;7.70;;;2.40;;
32501;SDS011;18952;52.516;13.460;2024-01-15T10:52:51;6.93;;;2.10;;
32501;SDS011;18952;52.516;13.460;2024-01-15T10:55:19;7.10;;;2.17;;
32501;SDS011;18952;52.516;13.460;2024-01-15T10:57:48;8.20;;;2.47;;
32501;SDS011;18952;52.516;13.460;2024-01-15T11:00:16;6.55;;;2.38;;
32501;SDS011;18952;52.516;13.460;2024-01-15T11:02:44;10.20;;;2.15;;
32501;SDS011;18952;52.516;13.460;2024-01-15T11:05:12;6.90;;;2.20;;
32501;SDS011;18952;52.516;13.460;2024-01-15T11:07:40;7.07;;;2.20;;
32501;SDS011;18952;52.516;13.460;2024-01-15T11:10:08;7.57;;;1.90;;
32501;SDS011;18952;52.516;13.460;2024-01-15T11:13:15;4.18;;;1.63;;
32501;SDS011;18952;52.516;13.460;2024-01-15T11:16:08;4.40;;;1.70;;
32501;SDS011;18952;52.516;13.460;2024-01-15T11:21:26;7.13;;;1.60;;
32501;SDS011;18952;52.516;13.460;2024-01-15T11:23:58;8.40;;;1.90;;
32501;SDS011;18952;52.516;13.460;2024-01-15T11:26:30;4.72;;;1.50;;
32501;SDS011;18952;52.516;13.460;2024-01-15T11:28:59;8.57;;;2.70;;
32501;SDS011;18952;52.516;13.460;2024-01-15T11:32:11;5.10;;;1.50;;
32501;SDS011;18952;52.516;13.460;2024-01-15T11:37:21;3.63;;;1.48;;
32501;SDS011;18952;52.516;13.460;2024-01-15T11:40:10;5.15;;;1.70;;
32501;SDS011;18952;52.516;13.460;2024-01-15T11:42:37;5.28;;;2.08;;
32501;SDS011;18952;52.516;13.460;2024-01-15T11:45:04;7.10;;;1.92;;
32501;SDS011;18952;52.516;13.460;2024-01-15T11:50:38;7.00;;;2.08;;
32501;SDS011;18952;52.516;13.460;2024-01-15T11:53:16;4.60;;;1.70;;
32501;SDS011;18952;52.516;13.460;2024-01-15T11:55:57;6.03;;;2.10;;
32501;SDS011;18952;52.516;13.460;2024-01-15T11:58:26;8.13;;;2.17;;
32501;SDS011;18952;52.516;13.460;2024-01-15T12:00:54;6.25;;;2.42;;
32501;SDS011;18952;52.516;13.460;2024-01-15T12:03:22;7.43;;;2.80;;
32501;SDS011;18952;52.516;13.460;2024-01-15T12:05:50;4.07;;;2.60;;
32501;SDS011;18952;52.516;13.460;2024-01-15T12:08:22;6.47;;;2.60;;
32501;SDS011;18952;52.516;13.460;2024-01-15T12:10:50;8.07;;;2.80;;
32501;SDS011;18952;52.516;13.460;2024-01-15T12:13:18;4.07;;;2.28;;
32501;SDS011;18952;52.516;13.460;2024-01-15T12:15:46;5.53;;;2.33;;
32501;SDS011;18952;52.516;13.460;2024-01-15T12:18:15;8.50;;;2.50;;
32501;SDS011;18952;52.516;13.460;2024-01-15T12:20:45;5.45;;;2.17;;
32501;SDS011;18952;52.516;13.460;2024-01-15T12:23:13;7.07;;;2.67;;
32501;SDS011;18952;52.516;13.460;2024-01-15T12:25:41;3.40;;;2.00;;
32501;SDS011;18952;52.516;13.460;2024-01-15T12:28:10;4.75;;;2.20;;
32501;SDS011;18952;52.516;13.460;2024-01-15T12:30:37;8.05;;;2.22;;
32501;SDS011;18952;52.516;13.460;2024-01-15T12:33:06;5.60;;;2.30;;
32501;SDS011;18952;52.516;13.460;2024-01-15T12:35:35;7.57;;;2.20;;
32501;SDS011;18952;52.516;13.460;2024-01-15T12:38:03;6.50;;;2.10;;
32501;SDS011;18952;52.516;13.460;2024-01-15T12:40:32;3.93;;;2.17;;
32501;SDS011;18952;52.516;13.460;2024-01-15T12:42:59;8.75;;;2.60;;
32501;SDS011;18952;52.516;13.460;2024-01-15T12:45:28;4.25;;;2.05;;
32501;SDS011;18952;52.516;13.460;2024-01-15T12:47:58;4.80;;;2.30;;
32501;SDS011;18952;52.516;13.460;2024-01-15T12:50:25;3.70;;;1.80;;
32501;SDS011;18952;52.516;13.460;2024-01-15T12:52:54;3.72;;;2.17;;
32501;SDS011;18952;52.516;13.460;2024-01-15T12:55:21;3.47;;;1.83;;
32501;SDS011;18952;52.516;13.460;2024-01-15T12:57:49;5.03;;;2.20;;
32501;SDS011;18952;52.516;13.460;2024-01-15T13:00:22;6.10;;;2.42;;
32501;SDS011;18952;52.516;13.460;2024-01-15T13:02:50;3.92;;;2.20;;
32501;SDS011;18952;52.516;13.460;2024-01-15T13:05:19;6.63;;;2.20;;
32501;SDS011;18952;52.516;13.460;2024-01-15T13:07:47;4.15;;;1.80;;
32501;SDS011;18952;52.516;13.460;2024-01-15T13:10:15;3.65;;;2.05;;
32501;SDS011;18952;52.516;13.460;2024-01-15T13:12:43;4.90;;;2.00;;
32501;SDS011;18952;52.516;13.460;2024-01-15T13:15:11;3.15;;;1.70;;
32501;SDS011;18952;52.516;13.460;2024-01-15T13:17:42;2.47;;;1.77;;
32501;SDS011;18952;52.516;13.460;2024-01-15T13:20:11;5.10;;;1.90;;
32501;SDS011;18952;52.516;13.460;2024-01-15T13:22:40;2.88;;;1.83;;
32501;SDS011;18952;52.516;13.460;2024-01-15T13:25:09;3.72;;;1.98;;
32501;SDS011;18952;52.516;13.460;2024-01-15T13:27:37;4.18;;;2.00;;
32501;SDS011;18952;52.516;13.460;2024-01-15T13:30:05;4.43;;;2.20;;
32501;SDS011;18952;52.516;13.460;2024-01-15T13:32:34;3.75;;;2.28;;
32501;SDS011;18952;52.516;13.460;2024-01-15T13:35:05;3.93;;;1.90;;
32501;SDS011;18952;52.516;13.460;2024-01-15T13:37:32;4.13;;;2.20;;
32501;SDS011;18952;52.516;13.460;2024-01-15T13:40:00;3.80;;;2.00;;
32501;SDS011;18952;52.516;13.460;2024-01-15T13:42:29;3.50;;;1.95;;
32501;SDS011;18952;52.516;13.460;2024-01-15T13:44:56;5.30;;;2.00;;
32501;SDS011;18952;52.516;13.460;2024-01-15T13:47:24;4.20;;;2.17;;
32501;SDS011;18952;52.516;13.460;2024-01-15T13:49:52;3.75;;;1.98;;
32501;SDS011;18952;52.516;13.460;2024-01-15T13:52:20;7.32;;;2.60;;
32501;SDS011;18952;52.516;13.460;2024-01-15T13:54:47;7.70;;;2.10;;
32501;SDS011;18952;52.516;13.460;2024-01-15T13:57:17;6.63;;;2.50;;
32501;SDS011;18952;52.516;13.460;2024-01-15T13:59:45;6.90;;;2.53;;
32501;SDS011;18952;52.516;13.460;2024-01-15T14:02:13;5.38;;;2.58;;
32501;SDS011;18952;52.516;13.460;2024-01-15T14:04:48;4.85;;;1.90;;
32501;SDS011;18952;52.516;13.460;2024-01-15T14:07:15;6.50;;;2.33;;
32501;SDS011;18952;52.516;13.460;2024-01-15T14:09:43;4.68;;;2.10;;
32501;SDS011;18952;52.516;13.460;2024-01-15T14:12:10;6.50;;;2.13;;
32501;SDS011;18952;52.516;13.460;2024-01-15T14:14:39;10.85;;;2.45;;
32501;SDS011;18952;52.516;13.460;2024-01-15T14:17:07;7.25;;;2.30;;
32501;SDS011;18952;52.516;13.460;2024-01-15T14:19:34;7.53;;;2.45;;
32501;SDS011;18952;52.516;13.460;2024-01-15T14:22:02;9.73;;;2.72;;
32501;SDS011;18952;52.516;13.460;2024-01-15T14:24:30;8.50;;;2.55;;
32501;SDS011;18952;52.516;13.460;2024-01-15T14:26:58;7.82;;;2.55;;
32501;SDS011;18952;52.516;13.460;2024-01-15T14:29:25;6.15;;;2.53;;
32501;SDS011;18952;52.516;13.460;2024-01-15T14:31:55;7.97;;;2.72;;
32501;SDS011;18952;52.516;13.460;2024-01-15T14:34:24;4.72;;;2.30;;
32501;SDS011;18952;52.516;13.460;2024-01-15T14:36:54;8.55;;;2.70;;
32501;SDS011;18952;52.516;13.460;2024-01-15T14:39:21;8.75;;;2.83;;